Time;durP1;ratioP1;P1;durP2;ratioP2;P2;SDS_P1;SDS_P2;PMS_P1;PMS_P2;Temp;Humidity;BMP_temperature;BMP_pressure;BME280_temperature;BME280_humidity;BME280_pressure;Samples;Min_cycle;Max_cycle;Signal;HPM_P1;HPM_P2
2023/08/21 00:02:14;;;;;;;;;;;;;;;;;;6208620;23;20275;-90
2023/08/21 00:04:43;;;;;;;;;;;;;;;;;;6210451;23;19920;-90
2023/08/21 00:07:57;;;;;;;;;;;;;;;;;;6186950;23;19923;-90
2023/08/21 00:10:04;;;;;;;;;;;;;;;;;;6198989;23;19919;-90
2023/08/21 00:12:31;;;;;;;;;;;;;;;;;;6182650;23;19920;-90
2023/08/21 00:15:00;;;;;;;;;;;;;;;;;;6205099;23;19924;-89
2023/08/21 00:17:26;;;;;;;;;;;;;;;;;;6180244;23;19919;-90
2023/08/21 00:19:52;;;;;;;;;;;;;;;;;;6184726;23;19999;-89
2023/08/21 00:22:20;;;;;;;;;;;;;;;;;;6184077;23;19924;-90
2023/08/21 00:24:47;;;;;;;;;;;;;;;;;;6182859;23;19938;-89
2023/08/21 00:27:22;;;;;;;;;;;;;;;;;;6206905;23;20234;-89
2023/08/21 00:29:48;;;;;;;;;;;;;;;;;;6183701;23;19982;-89
2023/08/21 00:32:14;;;;;;;;;;;;;;;;;;6182146;23;19919;-90
2023/08/21 00:34:40;;;;;;;;;;;;;;;;;;6233216;23;19998;-90
2023/08/21 00:37:06;;;;;;;;;;;;;;;;;;6183371;23;19926;-90
2023/08/21 00:39:32;;;;;;;;;;;;;;;;;;6206218;23;19920;-90
2023/08/21 00:42:10;;;;;;;;;;;;;;;;;;6207705;23;19930;-90
2023/08/21 00:44:47;;;;;;;;;;;;;;;;;;6181435;23;20376;-90
2023/08/21 00:47:19;;;;;;;;;;;;;;;;;;6182704;22;20061;-91
2023/08/21 00:49:46;;;;;;;;;;;;;;;;;;6250318;22;19915;-91
2023/08/21 00:52:12;;;;;;;;;;;;;;;;;;6252409;22;19915;-91
2023/08/21 00:54:46;;;;;;;;;;;;;;;;;;6256248;22;19973;-91
2023/08/21 00:57:12;;;;;;;;;;;;;;;;;;6256939;22;19934;-91
2023/08/21 00:59:41;;;;;;;;;;;;;;;;;;6255544;22;19943;-91
2023/08/21 01:02:07;;;;;;;;;;;;;;;;;;6259762;22;19973;-92
2023/08/21 01:04:33;;;;;;;;;;;;;;;;;;6257272;22;19919;-92
2023/08/21 01:06:59;;;;;;;;;;;;;;;;;;6258593;22;19922;-91
2023/08/21 01:09:31;;;;;;;;;;;;;;;;;;6256156;22;19961;-91
2023/08/21 01:12:00;;;;;;;;;;;;;;;;;;6257911;22;19919;-91
2023/08/21 01:14:26;;;;;;;;;;;;;;;;;;6262804;22;19986;-91
2023/08/21 01:16:55;;;;;;;;;;;;;;;;;;6264283;22;19927;-90
2023/08/21 01:19:24;;;;;;;;;;;;;;;;;;6259466;22;19968;-92
2023/08/21 01:21:53;;;;;;;;;;;;;;;;;;6283579;22;19920;-91
2023/08/21 01:24:19;;;;;;;;;;;;;;;;;;6256824;22;20223;-92
2023/08/21 01:26:45;;;;;;;;;;;;;;;;;;6256736;22;19923;-91
2023/08/21 01:29:11;;;;;;;;;;;;;;;;;;6261816;22;19941;-92
2023/08/21 01:31:47;;;;;;;;;;;;;;;;;;6262036;22;19955;-91
2023/08/21 01:34:21;;;;;;;;;;;;;;;;;;6260292;22;19938;-92
2023/08/21 01:36:50;;;;;;;;;;;;;;;;;;6260225;22;19916;-91
2023/08/21 01:39:19;;;;;;;;;;;;;;;;;;6262376;22;19915;-91
2023/08/21 01:41:45;;;;;;;;;;;;;;;;;;6287798;22;19923;-91
2023/08/21 01:44:14;;;;;;;;;;;;;;;;;;6260521;22;19941;-91
2023/08/21 01:46:40;;;;;;;;;;;;;;;;;;6257384;22;20255;-92
2023/08/21 01:49:06;;;;;;;;;;;;;;;;;;6258970;22;20224;-91
2023/08/21 01:51:35;;;;;;;;;;;;;;;;;;6261323;22;20036;-92
2023/08/21 01:54:04;;;;;;;;;;;;;;;;;;6263365;22;19926;-92
2023/08/21 01:56:33;;;;;;;;;;;;;;;;;;6238329;22;19943;-92
2023/08/21 01:59:06;;;;;;;;;;;;;;;;;;6264619;22;19920;-92
2023/08/21 02:01:33;;;;;;;;;;;;;;;;;;6229025;23;20330;-93
2023/08/21 02:03:59;;;;;;;;;;;;;;;;;;6230288;23;19916;-92
2023/08/21 02:06:25;;;;;;;;;;;;;;;;;;6251110;23;19946;-93
2023/08/21 02:08:56;;;;;;;;;;;;;;;;;;6237393;23;19935;-93
2023/08/21 02:11:43;;;;;;;;;;;;;;;;;;6233693;23;19927;-92
2023/08/21 02:14:12;;;;;;;;;;;;;;;;;;6258603;23;19922;-93
2023/08/21 02:16:38;;;;;;;;;;;;;;;;;;6236587;23;19919;-93
2023/08/21 02:19:11;;;;;;;;;;;;;;;;;;6237774;23;19976;-93
2023/08/21 02:21:37;;;;;;;;;;;;;;;;;;6237891;23;19934;-92
2023/08/21 02:24:09;;;;;;;;;;;;;;;;;;6238286;23;20047;-93
2023/08/21 02:26:45;;;;;;;;;;;;;;;;;;6239609;23;19928;-93
2023/08/21 02:29:22;;;;;;;;;;;;;;;;;;6266582;23;19924;-93
2023/08/21 02:31:55;;;;;;;;;;;;;;;;;;6244738;22;20041;-94
2023/08/21 02:34:48;;;;;;;;;;;;;;;;;;6265862;22;19915;-93
2023/08/21 02:37:23;;;;;;;;;;;;;;;;;;6294778;22;19958;-94
2023/08/21 02:39:52;;;;;;;;;;;;;;;;;;6267313;22;19945;-93
2023/08/21 02:42:18;;;;;;;;;;;;;;;;;;6270701;22;19949;-93
2023/08/21 02:44:47;;;;;;;;;;;;;;;;;;6297239;22;19953;-93
2023/08/21 02:47:33;;;;;;;;;;;;;;;;;;6213918;23;19992;-93
2023/08/21 02:50:10;;;;;;;;;;;;;;;;;;6240235;22;19919;-93
2023/08/21 02:52:44;;;;;;;;;;;;;;;;;;6244419;22;19920;-92
2023/08/21 02:55:16;;;;;;;;;;;;;;;;;;6246249;22;19916;-93
2023/08/21 02:57:50;;;;;;;;;;;;;;;;;;6245551;22;19955;-93
2023/08/21 03:00:19;;;;;;;;;;;;;;;;;;6240225;22;19915;-92
2023/08/21 03:02:45;;;;;;;;;;;;;;;;;;6240535;22;19919;-94
2023/08/21 03:05:14;;;;;;;;;;;;;;;;;;6245289;22;19922;-93
2023/08/21 03:07:58;;;;;;;;;;;;;;;;;;6260392;22;19938;-94
2023/08/21 03:10:37;;;;;;;;;;;;;;;;;;;;;
2023/08/21 03:13:06;;;;;;;;;;;;;;;;;;6266147;22;19919;-94
2023/08/21 03:15:32;;;;;;;;;;;;;;;;;;6243307;22;19939;-94
2023/08/21 03:18:01;;;;;;;;;;;;;;;;;;6244640;22;19916;-94
2023/08/21 03:20:40;;;;;;;;;;;;;;;;;;6240107;22;19919;-94
2023/08/21 03:23:28;;;;;;;;;;;;;;;;;;6305218;22;19919;-93
2023/08/21 03:26:04;;;;;;;;;;;;;;;;;;6243338;22;19915;-93
2023/08/21 03:28:38;;;;;;;;;;;;;;;;;;6241946;22;19916;-94
2023/08/21 03:31:07;;;;;;;;;;;;;;;;;;6246767;22;19911;-93
2023/08/21 03:33:39;;;;;;;;;;;;;;;;;;6266392;22;20693;-94
2023/08/21 03:36:14;;;;;;;;;;;;;;;;;;6244067;22;19927;-93
2023/08/21 03:39:04;;;;;;;;;;;;;;;;;;6276775;22;19942;-93
2023/08/21 03:41:32;;;;;;;;;;;;;;;;;;6243714;22;19926;-94
2023/08/21 03:43:58;;;;;;;;;;;;;;;;;;6263773;22;19942;-93
2023/08/21 03:46:30;;;;;;;;;;;;;;;;;;6266708;22;19939;-93
2023/08/21 03:49:05;;;;;;;;;;;;;;;;;;6267614;22;19938;-93
2023/08/21 03:51:37;;;;;;;;;;;;;;;;;;6271321;22;19943;-94
2023/08/21 03:54:06;;;;;;;;;;;;;;;;;;6295447;22;19959;-93
2023/08/21 03:56:51;;;;;;;;;;;;;;;;;;;;;
2023/08/21 03:59:20;;;;;;;;;;;;;;;;;;6281873;22;20001;-94
2023/08/21 04:01:48;;;;;;;;;;;;;;;;;;6256507;22;19956;-93
2023/08/21 04:04:16;;;;;;;;;;;;;;;;;;6264712;22;19965;-93
2023/08/21 04:06:44;;;;;;;;;;;;;;;;;;6225410;23;19916;-94
2023/08/21 04:09:12;;;;;;;;;;;;;;;;;;6196483;23;19995;-93
2023/08/21 04:11:49;;;;;;;;;;;;;;;;;;6221192;23;19919;-93
2023/08/21 04:14:25;;;;;;;;;;;;;;;;;;6176613;23;19939;-93
2023/08/21 04:16:51;;;;;;;;;;;;;;;;;;6220842;23;19919;-94
2023/08/21 04:19:22;;;;;;;;;;;;;;;;;;6229126;23;19916;-94
2023/08/21 04:21:48;;;;;;;;;;;;;;;;;;6200386;23;19995;-93
2023/08/21 04:24:26;;;;;;;;;;;;;;;;;;6202682;23;19959;-94
2023/08/21 04:26:55;;;;;;;;;;;;;;;;;;6202229;23;19920;-93
2023/08/21 04:29:27;;;;;;;;;;;;;;;;;;6200112;23;19927;-93
2023/08/21 04:31:59;;;;;;;;;;;;;;;;;;6199524;23;19922;-93
2023/08/21 04:34:28;;;;;;;;;;;;;;;;;;6209406;23;19994;-94
2023/08/21 04:37:05;;;;;;;;;;;;;;;;;;6203590;23;19943;-93
2023/08/21 04:39:37;;;;;;;;;;;;;;;;;;6223664;23;19920;-94
2023/08/21 04:42:06;;;;;;;;;;;;;;;;;;6201857;23;19947;-94
2023/08/21 04:44:34;;;;;;;;;;;;;;;;;;6241780;22;19915;-94
2023/08/21 04:47:09;;;;;;;;;;;;;;;;;;6285702;22;19923;-94
2023/08/21 04:49:41;;;;;;;;;;;;;;;;;;6262396;22;20010;-94
2023/08/21 04:52:07;;;;;;;;;;;;;;;;;;6265790;22;19915;-93
2023/08/21 04:54:36;;;;;;;;;;;;;;;;;;6291233;22;19914;-93
2023/08/21 04:57:03;;;;;;;;;;;;;;;;;;6268770;22;19919;-93
2023/08/21 04:59:35;;;;;;;;;;;;;;;;;;6271114;22;19919;-93
2023/08/21 05:02:03;;;;;;;;;;;;;;;;;;6271346;22;19919;-94
2023/08/21 05:07:24;;;;;;;;;;;;;;;;;;6292350;22;19914;-94
2023/08/21 05:09:50;;;;;;;;;;;;;;;;;;6261278;22;19919;-94
2023/08/21 05:12:19;;;;;;;;;;;;;;;;;;6257950;22;19929;-93
2023/08/21 05:14:51;;;;;;;;;;;;;;;;;;6266102;22;19926;-94
2023/08/21 05:17:20;;;;;;;;;;;;;;;;;;6260731;22;19923;-93
2023/08/21 05:19:49;;;;;;;;;;;;;;;;;;6254646;22;20394;-93
2023/08/21 05:22:17;;;;;;;;;;;;;;;;;;6254859;22;20116;-94
2023/08/21 05:24:46;;;;;;;;;;;;;;;;;;6257960;22;19933;-94
2023/08/21 05:27:12;;;;;;;;;;;;;;;;;;6248429;22;19930;-93
2023/08/21 05:29:41;;;;;;;;;;;;;;;;;;6252564;22;19918;-93
2023/08/21 05:32:12;;;;;;;;;;;;;;;;;;6280030;22;19961;-93
2023/08/21 05:34:48;;;;;;;;;;;;;;;;;;6277994;22;19919;-94
2023/08/21 05:37:20;;;;;;;;;;;;;;;;;;6271309;22;19925;-93
2023/08/21 05:39:48;;;;;;;;;;;;;;;;;;6257539;22;19985;-92
2023/08/21 05:42:15;;;;;;;;;;;;;;;;;;6230492;22;19923;-93
2023/08/21 05:44:46;;;;;;;;;;;;;;;;;;6228459;22;19919;-94
2023/08/21 05:47:23;;;;;;;;;;;;;;;;;;6238815;22;19943;-93
2023/08/21 05:50:01;;;;;;;;;;;;;;;;;;6236391;22;19927;-93
2023/08/21 05:52:33;;;;;;;;;;;;;;;;;;6227068;22;19988;-93
2023/08/21 05:55:05;;;;;;;;;;;;;;;;;;6246093;22;19926;-94
2023/08/21 05:57:38;;;;;;;;;;;;;;;;;;6245984;22;19993;-93
2023/08/21 06:00:23;;;;;;;;;;;;;;;;;;6243858;22;20750;-93
2023/08/21 06:02:52;;;;;;;;;;;;;;;;;;6229396;22;19946;-93
2023/08/21 06:05:26;;;;;;;;;;;;;;;;;;6228484;22;19919;-93
2023/08/21 06:08:12;;;;;;;;;;;;;;;;;;6228745;22;20003;-93
2023/08/21 06:10:38;;;;;;;;;;;;;;;;;;6201487;23;20594;-92
2023/08/21 06:13:22;;;;;;;;;;;;;;;;;;6183057;23;19916;-93
2023/08/21 06:16:18;;;;;;;;;;;;;;;;;;6227339;23;19914;-92
2023/08/21 06:19:20;;;;;;;;;;;;;;;;;;6246233;23;19924;-92
2023/08/21 06:21:54;;;;;;;;;;;;;;;;;;6235824;23;20336;-93
2023/08/21 06:24:26;;;;;;;;;;;;;;;;;;6198781;23;19943;-93
2023/08/21 06:27:00;;;;;;;;;;;;;;;;;;6202938;23;19919;-93
2023/08/21 06:29:37;;;;;;;;;;;;;;;;;;6196391;23;19927;-93
2023/08/21 06:32:05;;;;;;;;;;;;;;;;;;6194062;23;19915;-93
2023/08/21 06:34:36;;;;;;;;;;;;;;;;;;6202537;23;19933;-93
2023/08/21 06:37:05;;;;;;;;;;;;;;;;;;6207889;23;19955;-93
2023/08/21 06:39:36;;;;;;;;;;;;;;;;;;6212644;23;19939;-93
2023/08/21 06:42:14;;;;;;;;;;;;;;;;;;6280792;22;19930;-93
2023/08/21 06:44:51;;;;;;;;;;;;;;;;;;6327216;22;20559;-93
2023/08/21 06:57:28;;;;;;;;;;;;;;;;;;6095927;23;19933;-93
2023/08/21 07:06:31;;;;;;;;;;;;;;;;;;6127105;23;19925;-93
2023/08/21 07:46:15;;;;;;;;;;;;;;;;;;;;;
2023/08/21 07:48:57;;;;;;;;;;;;;;;;;;6303962;22;19931;-88
2023/08/21 07:51:44;;;;;;;;;;;;;;;;;;6237683;22;20345;-87
2023/08/21 07:54:41;;;;;;;;;;;;;;;;;;6288607;22;19992;-87
2023/08/21 07:57:34;;;;;;;;;;;;;;;;;;6247631;22;19930;-88
2023/08/21 08:03:06;;;;;;;;;;;;;;;;;;;;;
2023/08/21 08:08:34;;;;;;;;;;;;;;;;;;6262422;22;19922;-86
2023/08/21 08:11:02;;;;;;;;;;;;;;;;;;6240629;22;19969;-86
2023/08/21 08:13:28;;;;;;;;;;;;;;;;;;6236431;22;19999;-87
2023/08/21 08:16:04;;;;;;;;;;;;;;;;;;6240001;22;19929;-87
2023/08/21 08:18:42;;;;;;;;;;;;;;;;;;6240853;22;20026;-87
2023/08/21 08:24:22;;;;;;;;;;;;;;;;;;;;;
2023/08/21 08:29:58;;;;;;;;;;;;;;;;;;6291658;22;20000;-86
2023/08/21 08:32:25;;;;;;;;;;;;;;;;;;6262465;22;19919;-86
2023/08/21 08:34:51;;;;;;;;;;;;;;;;;;6240707;22;19969;-86
2023/08/21 08:37:20;;;;;;;;;;;;;;;;;;6238721;22;19919;-85
2023/08/21 08:39:46;;;;;;;;;;;;;;;;;;6238532;22;19915;-86
2023/08/21 08:42:12;;;;;;;;;;;;;;;;;;6240957;22;19919;-86
2023/08/21 08:44:39;;;;;;;;;;;;;;;;;;6265090;22;20746;-86
2023/08/21 08:47:05;;;;;;;;;;;;;;;;;;6240024;22;19919;-86
2023/08/21 08:49:31;;;;;;;;;;;;;;;;;;6238493;22;20002;-86
2023/08/21 08:51:57;;;;;;;;;;;;;;;;;;6238960;22;19926;-86
2023/08/21 08:54:25;;;;;;;;;;;;;;;;;;6234971;22;19918;-86
2023/08/21 08:56:59;;;;;;;;;;;;;;;;;;6240808;22;19919;-86
2023/08/21 08:59:28;;;;;;;;;;;;;;;;;;6238371;22;19919;-86
2023/08/21 09:02:03;;;;;;;;;;;;;;;;;;6266990;22;19923;-86
2023/08/21 09:04:39;;;;;;;;;;;;;;;;;;6236683;22;20016;-86
2023/08/21 09:07:11;;;;;;;;;;;;;;;;;;6240682;22;19926;-86
2023/08/21 09:09:37;;;;;;;;;;;;;;;;;;6239577;22;19918;-86
2023/08/21 09:12:03;;;;;;;;;;;;;;;;;;6242003;22;19919;-84
2023/08/21 09:14:29;;;;;;;;;;;;;;;;;;6237985;22;20407;-85
2023/08/21 09:16:57;;;;;;;;;;;;;;;;;;6266452;22;19930;-86
2023/08/21 09:19:24;;;;;;;;;;;;;;;;;;6264704;22;19962;-86
2023/08/21 09:32:28;;;;;;;;;;;;;;;;;;6243603;22;20002;-89
2023/08/21 09:38:06;;;;;;;;;;;;;;;;;;6236454;23;20355;-89
2023/08/21 09:40:35;;;;;;;;;;;;;;;;;;6201827;23;19926;-89
2023/08/21 09:43:13;;;;;;;;;;;;;;;;;;6203332;23;19924;-89
2023/08/21 09:48:40;;;;;;;;;;;;;;;;;;6223116;23;19942;-89
2023/08/21 09:51:40;;;;;;;;;;;;;;;;;;6223099;22;20415;-89
2023/08/21 09:57:18;;;;;;;;;;;;;;;;;;6219698;23;19926;-90
2023/08/21 09:59:57;;;;;;;;;;;;;;;;;;6228204;22;19934;-89
2023/08/21 10:02:32;;;;;;;;;;;;;;;;;;6204599;23;20006;-89
2023/08/21 10:08:19;;;;;;;;;;;;;;;;;;6111833;23;19928;-89
2023/08/21 10:10:48;;;;;;;;;;;;;;;;;;6087909;23;19916;-89
2023/08/21 10:13:47;;;;;;;;;;;;;;;;;;6198304;23;19923;-89
2023/08/21 10:16:49;;;;;;;;;;;;;;;;;;;;;
2023/08/21 10:19:27;;;;;;;;;;;;;;;;;;;;;
2023/08/21 10:28:03;;;;;;;;;;;;;;;;;;6178158;23;19926;-89
2023/08/21 10:30:51;;;;;;;;;;;;;;;;;;;;;
2023/08/21 10:49:44;;;;;;;;;;;;;;;;;;6116999;23;19920;-88
2023/08/21 10:55:42;;;;;;;;;;;;;;;;;;6167859;23;19996;-90
2023/08/21 10:58:38;;;;;;;;;;;;;;;;;;6282020;22;20336;-90
2023/08/21 11:01:26;;;;;;;;;;;;;;;;;;6268118;22;19930;-89
2023/08/21 11:07:15;;;;;;;;;;;;;;;;;;6292653;22;19976;-88
2023/08/21 11:10:01;;;;;;;;;;;;;;;;;;;;;
2023/08/21 11:12:29;;;;;;;;;;;;;;;;;;6265281;22;20008;-90
2023/08/21 15:17:12;;;;;;;;;;;;;;;;;;6275158;22;19919;-91
2023/08/21 15:23:14;;;;;;;;;;;;;;;;;;6178122;23;20004;-91
2023/08/21 15:26:07;;;;;;;;;;;;;;;;;;;;;
2023/08/21 15:32:12;;;;;;;;;;;;;;;;;;;;;
2023/08/21 15:35:04;;;;;;;;;;;;;;;;;;6077417;23;19921;-90
2023/08/21 15:43:56;;;;;;;;;;;;;;;;;;6149257;23;20245;-90
2023/08/21 16:31:49;;;;;;;;;;;;;;;;;;6282837;22;19994;-91
2023/08/21 16:49:31;;;;;;;;;;;;;;;;;;6215052;22;19927;-89
2023/08/21 16:51:57;;;;;;;;;;;;;;;;;;6203769;22;20386;-90
2023/08/21 16:54:23;;;;;;;;;;;;;;;;;;6199797;22;20589;-89
2023/08/21 16:56:49;;;;;;;;;;;;;;;;;;6200734;22;19954;-90
2023/08/21 16:59:15;;;;;;;;;;;;;;;;;;6229306;22;19973;-89
2023/08/21 17:01:41;;;;;;;;;;;;;;;;;;6232036;22;19926;-89
2023/08/21 17:04:07;;;;;;;;;;;;;;;;;;6235641;22;19923;-89
2023/08/21 17:06:33;;;;;;;;;;;;;;;;;;6231325;22;19930;-90
2023/08/21 17:09:27;;;;;;;;;;;;;;;;;;;;;
2023/08/21 17:11:57;;;;;;;;;;;;;;;;;;6233341;22;19919;-89
2023/08/21 17:14:23;;;;;;;;;;;;;;;;;;6207533;22;19915;-89
2023/08/21 17:16:49;;;;;;;;;;;;;;;;;;6231313;22;20228;-89
2023/08/21 17:19:15;;;;;;;;;;;;;;;;;;6207065;22;19990;-90
2023/08/21 17:21:41;;;;;;;;;;;;;;;;;;6206010;22;20848;-90
2023/08/21 17:24:07;;;;;;;;;;;;;;;;;;6207014;22;19997;-90
2023/08/21 17:26:33;;;;;;;;;;;;;;;;;;6226160;22;19919;-90
2023/08/21 17:29:00;;;;;;;;;;;;;;;;;;6207566;22;19919;-89
2023/08/21 17:31:26;;;;;;;;;;;;;;;;;;6230996;22;19998;-90
2023/08/21 17:33:52;;;;;;;;;;;;;;;;;;6210529;22;19950;-90
2023/08/21 17:36:19;;;;;;;;;;;;;;;;;;6232512;22;19927;-89
2023/08/21 17:38:45;;;;;;;;;;;;;;;;;;6232980;22;19919;-89
2023/08/21 17:41:10;;;;;;;;;;;;;;;;;;6209245;22;20251;-89
2023/08/21 17:43:37;;;;;;;;;;;;;;;;;;6203488;22;20430;-89
2023/08/21 17:46:05;;;;;;;;;;;;;;;;;;6231365;22;19919;-89
2023/08/21 17:48:31;;;;;;;;;;;;;;;;;;6203685;22;19919;-89
2023/08/21 17:50:59;;;;;;;;;;;;;;;;;;6232158;22;20340;-89
2023/08/21 17:53:25;;;;;;;;;;;;;;;;;;6230440;22;20018;-89
2023/08/21 17:55:51;;;;;;;;;;;;;;;;;;6202814;22;19923;-89
2023/08/21 17:58:17;;;;;;;;;;;;;;;;;;6232863;22;19994;-89
2023/08/21 18:00:43;;;;;;;;;;;;;;;;;;6206028;22;19968;-89
2023/08/21 18:03:09;;;;;;;;;;;;;;;;;;6205971;22;20355;-89
2023/08/21 18:05:35;;;;;;;;;;;;;;;;;;6227886;22;19919;-89
2023/08/21 18:08:02;;;;;;;;;;;;;;;;;;6205284;22;19926;-89
2023/08/21 18:10:28;;;;;;;;;;;;;;;;;;6229125;22;20552;-89
2023/08/21 18:12:54;;;;;;;;;;;;;;;;;;6229593;22;19919;-88
2023/08/21 18:15:20;;;;;;;;;;;;;;;;;;6227572;22;19926;-88
2023/08/21 18:17:46;;;;;;;;;;;;;;;;;;6205923;22;19923;-89
2023/08/21 18:20:12;;;;;;;;;;;;;;;;;;6207459;22;19996;-89
2023/08/21 18:22:38;;;;;;;;;;;;;;;;;;6229184;22;19934;-89
2023/08/21 18:25:04;;;;;;;;;;;;;;;;;;6231887;22;19919;-89
2023/08/21 18:27:32;;;;;;;;;;;;;;;;;;6203310;22;20374;-89
2023/08/21 18:29:58;;;;;;;;;;;;;;;;;;6207892;22;20267;-89
2023/08/21 18:32:25;;;;;;;;;;;;;;;;;;6205374;22;19923;-89
2023/08/21 18:34:51;;;;;;;;;;;;;;;;;;6233034;22;20340;-89
2023/08/21 18:37:17;;;;;;;;;;;;;;;;;;6206163;22;19919;-89
2023/08/21 18:39:45;;;;;;;;;;;;;;;;;;6205266;22;20259;-89
2023/08/21 18:42:11;;;;;;;;;;;;;;;;;;6203024;22;19930;-89
2023/08/21 18:44:37;;;;;;;;;;;;;;;;;;6200469;22;20315;-89
2023/08/21 18:47:03;;;;;;;;;;;;;;;;;;6204345;22;19941;-89
2023/08/21 18:49:30;;;;;;;;;;;;;;;;;;6197565;22;20339;-89
2023/08/21 18:51:56;;;;;;;;;;;;;;;;;;6202650;22;19923;-89
2023/08/21 18:54:25;;;;;;;;;;;;;;;;;;6199783;22;19919;-89
2023/08/21 18:56:51;;;;;;;;;;;;;;;;;;6202085;22;19938;-89
2023/08/21 18:59:17;;;;;;;;;;;;;;;;;;6200808;22;19950;-88
2023/08/21 19:01:47;;;;;;;;;;;;;;;;;;6228609;22;19920;-88
2023/08/21 19:04:16;;;;;;;;;;;;;;;;;;6208680;22;19927;-88
2023/08/21 19:06:52;;;;;;;;;;;;;;;;;;6207175;22;20009;-89
2023/08/21 19:09:19;;;;;;;;;;;;;;;;;;6228811;22;19930;-88
2023/08/21 19:11:45;;;;;;;;;;;;;;;;;;6206240;22;19926;-87
2023/08/21 19:14:11;;;;;;;;;;;;;;;;;;6207006;22;19919;-87
2023/08/21 19:16:37;;;;;;;;;;;;;;;;;;6204082;22;20274;-88
2023/08/21 19:19:03;;;;;;;;;;;;;;;;;;6234234;22;20292;-88
2023/08/21 19:21:29;;;;;;;;;;;;;;;;;;6203945;22;19950;-88
2023/08/21 19:23:55;;;;;;;;;;;;;;;;;;6207872;22;19923;-87
2023/08/21 19:26:24;;;;;;;;;;;;;;;;;;6204228;22;20248;-87
2023/08/21 19:28:53;;;;;;;;;;;;;;;;;;6205697;22;19977;-87
2023/08/21 19:34:08;;;;;;;;;;;;;;;;;;6255643;22;19927;-86
2023/08/21 19:39:54;;;;;;;;;;;;;;;;;;6142671;23;20273;-86
2023/08/21 19:42:22;;;;;;;;;;;;;;;;;;6118195;23;20388;-86
2023/08/21 19:45:19;;;;;;;;;;;;;;;;;;6147741;23;19920;-86
2023/08/21 19:48:09;;;;;;;;;;;;;;;;;;6087498;23;19961;-85
2023/08/21 19:50:44;;;;;;;;;;;;;;;;;;6110313;23;19916;-86
2023/08/21 19:53:16;;;;;;;;;;;;;;;;;;6116279;23;20019;-86
2023/08/21 19:55:52;;;;;;;;;;;;;;;;;;6119659;22;20395;-86
2023/08/21 19:58:51;;;;;;;;;;;;;;;;;;6264963;22;19915;-86
2023/08/21 20:04:09;;;;;;;;;;;;;;;;;;6213729;23;19927;-85
2023/08/21 20:07:10;;;;;;;;;;;;;;;;;;6174880;23;19920;-86
2023/08/21 20:09:35;;;;;;;;;;;;;;;;;;6196080;23;20019;-85
2023/08/21 20:12:20;;;;;;;;;;;;;;;;;;;;;
2023/08/21 20:15:31;;;;;;;;;;;;;;;;;;6195350;23;20350;-87
2023/08/21 20:33:02;;;;;;;;;;;;;;;;;;6095171;23;19923;-85
2023/08/21 20:35:40;;;;;;;;;;;;;;;;;;6089754;23;19963;-86
2023/08/21 20:44:15;;;;;;;;;;;;;;;;;;;;;
2023/08/21 20:46:41;;;;;;;;;;;;;;;;;;6115494;23;19917;-86
2023/08/21 20:49:14;;;;;;;;;;;;;;;;;;6093377;23;19921;-85
2023/08/21 20:51:44;;;;;;;;;;;;;;;;;;6176877;23;19919;-85
2023/08/21 20:54:12;;;;;;;;;;;;;;;;;;6207061;23;19919;-85
2023/08/21 20:56:58;;;;;;;;;;;;;;;;;;6219174;23;19966;-85
2023/08/21 20:59:33;;;;;;;;;;;;;;;;;;6180622;23;20002;-86
2023/08/21 21:02:02;;;;;;;;;;;;;;;;;;6183885;23;19922;-86
2023/08/21 21:04:40;;;;;;;;;;;;;;;;;;6182824;23;20301;-85
2023/08/21 21:07:24;;;;;;;;;;;;;;;;;;6233587;23;20331;-85
2023/08/21 21:09:57;;;;;;;;;;;;;;;;;;6204857;23;19947;-86
2023/08/21 21:12:25;;;;;;;;;;;;;;;;;;6204777;23;19919;-86
2023/08/21 21:14:59;;;;;;;;;;;;;;;;;;6185269;23;19915;-86
2023/08/21 21:17:37;;;;;;;;;;;;;;;;;;6183209;23;19994;-86
2023/08/21 21:20:21;;;;;;;;;;;;;;;;;;6210356;23;20132;-86
2023/08/21 21:23:04;;;;;;;;;;;;;;;;;;;;;
2023/08/21 21:26:03;;;;;;;;;;;;;;;;;;6183426;23;19924;-86
2023/08/21 21:31:21;;;;;;;;;;;;;;;;;;6186703;23;19968;-86
2023/08/21 21:34:06;;;;;;;;;;;;;;;;;;6183302;22;20009;-86
2023/08/21 21:36:49;;;;;;;;;;;;;;;;;;6249143;22;20252;-86
2023/08/21 21:39:21;;;;;;;;;;;;;;;;;;6211898;22;19922;-86
2023/08/21 21:45:19;;;;;;;;;;;;;;;;;;6151659;23;20417;-86
2023/08/21 21:47:45;;;;;;;;;;;;;;;;;;6090933;23;19952;-86
2023/08/21 21:50:11;;;;;;;;;;;;;;;;;;6192143;22;19998;-86
2023/08/21 21:52:40;;;;;;;;;;;;;;;;;;6208788;22;19919;-85
2023/08/21 21:58:06;;;;;;;;;;;;;;;;;;6233992;22;19926;-86
2023/08/21 22:00:32;;;;;;;;;;;;;;;;;;6257130;22;19963;-86
2023/08/21 22:03:00;;;;;;;;;;;;;;;;;;6206765;22;19965;-85
2023/08/21 22:05:29;;;;;;;;;;;;;;;;;;6230547;22;20401;-86
2023/08/21 22:07:55;;;;;;;;;;;;;;;;;;6207843;22;19919;-85
2023/08/21 22:10:27;;;;;;;;;;;;;;;;;;6207206;22;19919;-85
2023/08/21 22:13:02;;;;;;;;;;;;;;;;;;6209191;22;19950;-85
2023/08/21 22:15:28;;;;;;;;;;;;;;;;;;6204452;22;20610;-86
2023/08/21 22:17:54;;;;;;;;;;;;;;;;;;6262702;22;20272;-85
2023/08/21 22:20:20;;;;;;;;;;;;;;;;;;6207639;22;19919;-86
2023/08/21 22:22:49;;;;;;;;;;;;;;;;;;6210429;22;19953;-86
2023/08/21 22:25:15;;;;;;;;;;;;;;;;;;6208590;22;19946;-85
2023/08/21 22:27:41;;;;;;;;;;;;;;;;;;6207705;22;20338;-86
2023/08/21 22:30:07;;;;;;;;;;;;;;;;;;6209631;22;19919;-85
2023/08/21 22:32:33;;;;;;;;;;;;;;;;;;6232125;22;19998;-86
2023/08/21 22:34:59;;;;;;;;;;;;;;;;;;6211951;22;19930;-86
2023/08/21 22:37:25;;;;;;;;;;;;;;;;;;6209215;22;19954;-85
2023/08/21 22:40:02;;;;;;;;;;;;;;;;;;6210834;22;19919;-86
2023/08/21 22:42:28;;;;;;;;;;;;;;;;;;6208654;22;19923;-85
2023/08/21 22:44:56;;;;;;;;;;;;;;;;;;6263726;22;19930;-85
2023/08/21 22:47:23;;;;;;;;;;;;;;;;;;6234383;22;19923;-85
2023/08/21 22:49:49;;;;;;;;;;;;;;;;;;6211123;22;19919;-85
2023/08/21 22:52:17;;;;;;;;;;;;;;;;;;6207522;22;20243;-85
2023/08/21 22:54:43;;;;;;;;;;;;;;;;;;6211592;22;19916;-86
2023/08/21 22:57:09;;;;;;;;;;;;;;;;;;6237165;22;19919;-85
2023/08/21 22:59:41;;;;;;;;;;;;;;;;;;6209763;22;19997;-85
2023/08/21 23:02:10;;;;;;;;;;;;;;;;;;6212084;22;20048;-85
2023/08/21 23:04:36;;;;;;;;;;;;;;;;;;6208180;22;19977;-85
2023/08/21 23:07:03;;;;;;;;;;;;;;;;;;6211055;22;19954;-85
2023/08/21 23:09:29;;;;;;;;;;;;;;;;;;6210037;22;19919;-85
2023/08/21 23:11:55;;;;;;;;;;;;;;;;;;6236222;22;19926;-85
2023/08/21 23:14:21;;;;;;;;;;;;;;;;;;6206635;22;20290;-85
2023/08/21 23:16:54;;;;;;;;;;;;;;;;;;6210222;22;20347;-85
2023/08/21 23:19:20;;;;;;;;;;;;;;;;;;6209863;22;20824;-85
2023/08/21 23:21:47;;;;;;;;;;;;;;;;;;6260742;22;20398;-85
2023/08/21 23:24:13;;;;;;;;;;;;;;;;;;6209389;22;19973;-85
2023/08/21 23:26:39;;;;;;;;;;;;;;;;;;6207500;22;19969;-85
2023/08/21 23:29:05;;;;;;;;;;;;;;;;;;6211675;22;19919;-86
2023/08/21 23:31:34;;;;;;;;;;;;;;;;;;6234687;22;19989;-85
2023/08/21 23:34:00;;;;;;;;;;;;;;;;;;6208788;22;19931;-86
2023/08/21 23:36:26;;;;;;;;;;;;;;;;;;6233226;22;19927;-85
2023/08/21 23:38:55;;;;;;;;;;;;;;;;;;6211030;22;20470;-86
2023/08/21 23:41:21;;;;;;;;;;;;;;;;;;6208682;22;20678;-85
2023/08/21 23:43:48;;;;;;;;;;;;;;;;;;6232448;22;19930;-85
2023/08/21 23:46:19;;;;;;;;;;;;;;;;;;6209046;22;19919;-85
2023/08/21 23:48:45;;;;;;;;;;;;;;;;;;6212935;22;19919;-85
2023/08/21 23:51:13;;;;;;;;;;;;;;;;;;6238159;22;19919;-85
2023/08/21 23:53:39;;;;;;;;;;;;;;;;;;6211039;22;20883;-85
2023/08/21 23:56:08;;;;;;;;;;;;;;;;;;6213301;22;19926;-85
2023/08/21 23:58:37;;;;;;;;;;;;;;;;;;6208564;22;20439;-85
